»·PEaware :: N524DS KSBA-KCMA

N524DS :: KSBA-KCMA

FLIGHT INFORMATION

Flight Status: Arrived
Operator: Privately registered:
United States
More flights under this callsign
Pilot: Wayne M. (1794)
Aircraft: Unknown
(DA40)
More flights by this aircraft type
Origin: KSBA Santa Barbara Mun
United States
Destination: KCMA Camarillo
United States
More flights between these airports :: More routes between these airports
Route: +KWANG CMA
File this flight plan on PilotEdge
Remarks:
Altitude:
(Current/Filed)
3,000ft
Speed:
(Current/Filed)
0kts
Departed: 22-Feb-15 01:20 PM
Arrived: 22-Feb-15 02:08 PM
Distance/Time
Traveled:
39nm/0:48
Distance/Time
To Go:
Arrived

Flight Plot

Page will automatically refresh every two minutes.


Map Options




Map Legend


Flown Route
Filed Route
Departure Airport
Arrival Airport
Navaid (VOR, NDB)
Fix

Horizontal Profiles

Position Reports

Time Latitude Longitude Heading Altitude Ground
Speed
22-Feb-15 13:07 34.432306 -119.835117 71 17ft 0kts
22-Feb-15 13:08 34.432306 -119.835117 71 17ft 0kts
22-Feb-15 13:09 34.432306 -119.835117 71 17ft 0kts
22-Feb-15 13:10 34.432592 -119.835433 284 17ft 8kts
22-Feb-15 13:11 34.430888 -119.838434 254 17ft 13kts
22-Feb-15 13:12 34.430596 -119.839467 261 17ft 0kts
22-Feb-15 13:13 34.430596 -119.839467 261 17ft 0kts
22-Feb-15 13:14 34.428908 -119.839946 156 17ft 49kts
22-Feb-15 13:15 34.409537 -119.828755 124 1092ft 87kts
22-Feb-15 13:16 34.382074 -119.813936 159 1759ft 126kts
22-Feb-15 13:17 34.348524 -119.796289 147 2361ft 136kts
22-Feb-15 13:18 34.336664 -119.753747 101 2956ft 137kts
22-Feb-15 13:19 34.328351 -119.705698 101 2970ft 152kts
22-Feb-15 13:20 34.326578 -119.655147 90 2970ft 152kts
22-Feb-15 13:21 34.325970 -119.606491 90 2968ft 135kts
22-Feb-15 13:22 34.325506 -119.561614 90 2970ft 132kts
22-Feb-15 13:23 34.325155 -119.517218 90 2970ft 132kts
22-Feb-15 13:24 34.324927 -119.480841 90 2969ft 131kts
22-Feb-15 13:25 34.326211 -119.438535 87 2969ft 129kts
22-Feb-15 13:26 34.326582 -119.395782 90 2970ft 129kts
22-Feb-15 13:27 34.326567 -119.370489 90 3369ft 124kts
22-Feb-15 13:28 34.326555 -119.340581 90 3810ft 125kts
22-Feb-15 13:29 34.326463 -119.314506 91 4006ft 137kts
22-Feb-15 13:30 34.326350 -119.284937 90 4002ft 144kts
22-Feb-15 13:31 34.326217 -119.253721 91 4007ft 140kts
22-Feb-15 13:32 34.326076 -119.224076 91 4014ft 139kts
22-Feb-15 13:33 34.325925 -119.194488 91 3994ft 139kts
22-Feb-15 13:34 34.325771 -119.161679 91 3995ft 133kts
22-Feb-15 13:35 34.325605 -119.128864 91 4000ft 136kts
22-Feb-15 13:36 34.325422 -119.094022 92 4000ft 138kts
22-Feb-15 13:37 34.325230 -119.062840 92 4031ft 141kts
22-Feb-15 13:38 34.325054 -119.033011 92 4015ft 139kts
22-Feb-15 13:39 34.324905 -119.005754 92 4015ft 142kts
22-Feb-15 13:40 34.324763 -118.974548 92 3972ft 137kts
22-Feb-15 13:41 34.324511 -118.940900 95 4008ft 142kts
22-Feb-15 13:42 34.324278 -118.911182 91 4011ft 148kts
22-Feb-15 13:43 34.324145 -118.882890 92 3993ft 139kts
22-Feb-15 13:44 34.323954 -118.852595 92 4002ft 136kts
22-Feb-15 13:45 34.323703 -118.821702 92 4008ft 137kts
22-Feb-15 13:46 34.321899 -118.792117 121 3988ft 127kts
22-Feb-15 13:47 34.304839 -118.784895 188 3994ft 110kts
22-Feb-15 13:48 34.282946 -118.788162 187 4008ft 109kts
22-Feb-15 13:49 34.262002 -118.791183 187 3997ft 110kts
22-Feb-15 13:50 34.240269 -118.794312 187 3988ft 108kts
22-Feb-15 13:51 34.218291 -118.798141 205 3966ft 105kts
22-Feb-15 13:52 34.211461 -118.829806 263 3388ft 116kts
22-Feb-15 13:53 34.211531 -118.865808 264 3068ft 102kts
22-Feb-15 13:54 34.211814 -118.893799 265 2802ft 96kts
22-Feb-15 13:55 34.212128 -118.918069 264 2719ft 90kts
22-Feb-15 13:56 34.212399 -118.943185 265 2405ft 101kts
22-Feb-15 13:57 34.212690 -118.973039 264 1928ft 95kts
22-Feb-15 13:58 34.212971 -119.002806 263 1445ft 83kts
22-Feb-15 13:59 34.213185 -119.027663 262 1019ft 67kts
22-Feb-15 14:00 34.213401 -119.052901 264 632ft 80kts
22-Feb-15 14:01 34.213617 -119.076695 263 211ft 64kts
22-Feb-15 14:02 34.213608 -119.092800 269 81ft 22kts
22-Feb-15 14:03 34.212863 -119.095074 202 81ft 0kts

Navigation Log

Ident Type
Flight plan parsing failed, navigation log unavailable